sensor_id;sensor_type;location;lat;lon;timestamp;P1;durP1;ratioP1;P2;durP2;ratioP2
7747;SDS011;3918;42.564;23.164;2023-05-10T04:02:41;33.42;;;9.68;;
7747;SDS011;3918;42.564;23.164;2023-05-10T04:05:08;19.67;;;9.00;;
7747;SDS011;3918;42.564;23.164;2023-05-10T04:07:35;11.93;;;8.75;;
7747;SDS011;3918;42.564;23.164;2023-05-10T04:10:02;10.07;;;7.45;;
7747;SDS011;3918;42.564;23.164;2023-05-10T04:12:29;11.65;;;7.30;;
7747;SDS011;3918;42.564;23.164;2023-05-10T04:14:55;13.02;;;7.00;;
7747;SDS011;3918;42.564;23.164;2023-05-10T04:17:22;15.07;;;9.65;;
7747;SDS011;3918;42.564;23.164;2023-05-10T04:19:50;12.45;;;8.45;;
7747;SDS011;3918;42.564;23.164;2023-05-10T04:22:19;18.60;;;8.35;;
7747;SDS011;3918;42.564;23.164;2023-05-10T04:24:46;34.40;;;10.93;;
7747;SDS011;3918;42.564;23.164;2023-05-10T04:27:13;13.90;;;9.32;;
7747;SDS011;3918;42.564;23.164;2023-05-10T04:29:39;14.05;;;9.88;;
7747;SDS011;3918;42.564;23.164;2023-05-10T04:32:06;13.63;;;9.02;;
7747;SDS011;3918;42.564;23.164;2023-05-10T04:34:35;15.32;;;9.27;;
7747;SDS011;3918;42.564;23.164;2023-05-10T04:37:03;11.68;;;8.98;;
7747;SDS011;3918;42.564;23.164;2023-05-10T04:39:30;10.93;;;8.38;;
7747;SDS011;3918;42.564;23.164;2023-05-10T04:41:57;11.18;;;8.15;;
7747;SDS011;3918;42.564;23.164;2023-05-10T04:44:24;12.45;;;9.60;;
7747;SDS011;3918;42.564;23.164;2023-05-10T04:46:50;11.70;;;8.48;;
7747;SDS011;3918;42.564;23.164;2023-05-10T04:49:17;13.00;;;9.60;;
7747;SDS011;3918;42.564;23.164;2023-05-10T04:51:44;9.23;;;7.45;;
7747;SDS011;3918;42.564;23.164;2023-05-10T04:54:12;8.40;;;7.30;;
7747;SDS011;3918;42.564;23.164;2023-05-10T04:56:39;10.52;;;8.23;;
7747;SDS011;3918;42.564;23.164;2023-05-10T04:59:05;16.23;;;9.95;;
7747;SDS011;3918;42.564;23.164;2023-05-10T05:01:32;11.98;;;8.77;;
7747;SDS011;3918;42.564;23.164;2023-05-10T05:03:59;10.98;;;8.30;;
7747;SDS011;3918;42.564;23.164;2023-05-10T05:06:26;12.18;;;9.93;;
7747;SDS011;3918;42.564;23.164;2023-05-10T05:08:53;10.43;;;8.85;;
7747;SDS011;3918;42.564;23.164;2023-05-10T05:11:21;11.98;;;8.00;;
7747;SDS011;3918;42.564;23.164;2023-05-10T05:13:48;9.75;;;7.70;;
7747;SDS011;3918;42.564;23.164;2023-05-10T05:16:14;12.27;;;8.23;;
7747;SDS011;3918;42.564;23.164;2023-05-10T05:18:41;14.63;;;8.23;;
7747;SDS011;3918;42.564;23.164;2023-05-10T05:21:17;12.52;;;7.25;;
7747;SDS011;3918;42.564;23.164;2023-05-10T05:23:45;16.77;;;8.57;;
7747;SDS011;3918;42.564;23.164;2023-05-10T05:26:12;13.00;;;9.07;;
7747;SDS011;3918;42.564;23.164;2023-05-10T05:28:41;12.65;;;7.97;;
7747;SDS011;3918;42.564;23.164;2023-05-10T05:31:08;9.05;;;7.15;;
7747;SDS011;3918;42.564;23.164;2023-05-10T05:33:35;25.67;;;8.95;;
7747;SDS011;3918;42.564;23.164;2023-05-10T05:36:02;38.83;;;9.30;;
7747;SDS011;3918;42.564;23.164;2023-05-10T05:38:30;56.80;;;9.13;;
7747;SDS011;3918;42.564;23.164;2023-05-10T05:40:57;140.70;;;11.90;;
7747;SDS011;3918;42.564;23.164;2023-05-10T05:43:23;9.20;;;7.10;;
7747;SDS011;3918;42.564;23.164;2023-05-10T05:45:53;8.68;;;7.10;;
7747;SDS011;3918;42.564;23.164;2023-05-10T05:48:19;10.00;;;8.43;;
7747;SDS011;3918;42.564;23.164;2023-05-10T05:50:47;9.13;;;7.03;;
7747;SDS011;3918;42.564;23.164;2023-05-10T05:53:13;8.68;;;7.70;;
7747;SDS011;3918;42.564;23.164;2023-05-10T05:55:45;7.75;;;6.80;;
7747;SDS011;3918;42.564;23.164;2023-05-10T05:58:17;10.70;;;7.22;;
7747;SDS011;3918;42.564;23.164;2023-05-10T06:00:44;7.22;;;6.53;;
7747;SDS011;3918;42.564;23.164;2023-05-10T06:03:12;8.63;;;6.65;;
7747;SDS011;3918;42.564;23.164;2023-05-10T06:05:39;7.15;;;6.45;;
7747;SDS011;3918;42.564;23.164;2023-05-10T06:08:06;9.05;;;6.35;;
7747;SDS011;3918;42.564;23.164;2023-05-10T06:10:32;6.13;;;5.63;;
7747;SDS011;3918;42.564;23.164;2023-05-10T06:12:59;6.68;;;5.70;;
7747;SDS011;3918;42.564;23.164;2023-05-10T06:15:26;8.60;;;5.45;;
7747;SDS011;3918;42.564;23.164;2023-05-10T06:17:53;5.72;;;5.20;;
7747;SDS011;3918;42.564;23.164;2023-05-10T06:20:21;6.25;;;4.80;;
7747;SDS011;3918;42.564;23.164;2023-05-10T06:22:48;6.25;;;5.65;;
7747;SDS011;3918;42.564;23.164;2023-05-10T06:25:15;7.28;;;5.60;;
7747;SDS011;3918;42.564;23.164;2023-05-10T06:27:43;6.10;;;5.60;;
7747;SDS011;3918;42.564;23.164;2023-05-10T06:30:10;5.00;;;4.60;;
7747;SDS011;3918;42.564;23.164;2023-05-10T06:32:38;5.53;;;5.03;;
7747;SDS011;3918;42.564;23.164;2023-05-10T06:35:05;5.47;;;4.60;;
7747;SDS011;3918;42.564;23.164;2023-05-10T06:37:34;5.13;;;4.72;;
7747;SDS011;3918;42.564;23.164;2023-05-10T06:40:01;4.15;;;3.85;;
7747;SDS011;3918;42.564;23.164;2023-05-10T06:42:28;7.70;;;3.80;;
7747;SDS011;3918;42.564;23.164;2023-05-10T06:44:55;4.15;;;3.85;;
7747;SDS011;3918;42.564;23.164;2023-05-10T06:47:22;6.80;;;4.78;;
7747;SDS011;3918;42.564;23.164;2023-05-10T06:49:49;8.18;;;4.25;;
7747;SDS011;3918;42.564;23.164;2023-05-10T06:52:16;4.05;;;3.75;;
7747;SDS011;3918;42.564;23.164;2023-05-10T06:54:44;3.88;;;3.53;;
7747;SDS011;3918;42.564;23.164;2023-05-10T06:57:11;3.78;;;3.40;;
7747;SDS011;3918;42.564;23.164;2023-05-10T06:59:37;4.47;;;4.07;;
7747;SDS011;3918;42.564;23.164;2023-05-10T07:02:04;4.03;;;3.63;;
7747;SDS011;3918;42.564;23.164;2023-05-10T07:04:31;5.43;;;4.53;;
7747;SDS011;3918;42.564;23.164;2023-05-10T07:06:58;4.88;;;4.45;;
7747;SDS011;3918;42.564;23.164;2023-05-10T07:09:25;5.45;;;4.43;;
7747;SDS011;3918;42.564;23.164;2023-05-10T07:11:53;5.38;;;4.88;;
7747;SDS011;3918;42.564;23.164;2023-05-10T07:14:20;7.53;;;5.93;;
7747;SDS011;3918;42.564;23.164;2023-05-10T07:16:46;12.10;;;5.32;;
7747;SDS011;3918;42.564;23.164;2023-05-10T07:19:13;5.72;;;4.95;;
7747;SDS011;3918;42.564;23.164;2023-05-10T07:21:40;7.55;;;5.30;;
7747;SDS011;3918;42.564;23.164;2023-05-10T07:24:08;10.20;;;5.82;;
7747;SDS011;3918;42.564;23.164;2023-05-10T07:26:35;5.80;;;5.20;;
7747;SDS011;3918;42.564;23.164;2023-05-10T07:29:03;5.32;;;4.82;;
7747;SDS011;3918;42.564;23.164;2023-05-10T07:31:30;5.20;;;4.70;;
7747;SDS011;3918;42.564;23.164;2023-05-10T07:33:57;7.88;;;5.25;;
7747;SDS011;3918;42.564;23.164;2023-05-10T07:36:23;4.95;;;4.47;;
7747;SDS011;3918;42.564;23.164;2023-05-10T07:38:50;5.13;;;4.63;;
7747;SDS011;3918;42.564;23.164;2023-05-10T07:41:17;6.97;;;5.28;;
7747;SDS011;3918;42.564;23.164;2023-05-10T07:43:44;6.35;;;5.13;;
7747;SDS011;3918;42.564;23.164;2023-05-10T07:46:12;9.65;;;5.88;;
7747;SDS011;3918;42.564;23.164;2023-05-10T07:48:39;6.15;;;5.57;;
7747;SDS011;3918;42.564;23.164;2023-05-10T07:51:06;10.40;;;5.30;;
7747;SDS011;3918;42.564;23.164;2023-05-10T07:53:34;6.70;;;5.40;;
7747;SDS011;3918;42.564;23.164;2023-05-10T07:56:19;6.30;;;5.50;;
7747;SDS011;3918;42.564;23.164;2023-05-10T07:58:47;8.98;;;6.18;;
7747;SDS011;3918;42.564;23.164;2023-05-10T08:01:15;7.55;;;5.22;;
7747;SDS011;3918;42.564;23.164;2023-05-10T08:03:42;6.05;;;5.07;;
7747;SDS011;3918;42.564;23.164;2023-05-10T08:06:09;12.82;;;5.13;;
7747;SDS011;3918;42.564;23.164;2023-05-10T08:08:36;6.10;;;5.50;;
7747;SDS011;3918;42.564;23.164;2023-05-10T08:11:03;5.20;;;4.70;;
7747;SDS011;3918;42.564;23.164;2023-05-10T08:13:30;6.40;;;5.00;;
7747;SDS011;3918;42.564;23.164;2023-05-10T08:15:57;8.93;;;4.30;;
7747;SDS011;3918;42.564;23.164;2023-05-10T08:18:25;7.50;;;4.60;;
7747;SDS011;3918;42.564;23.164;2023-05-10T08:20:52;5.90;;;4.85;;
7747;SDS011;3918;42.564;23.164;2023-05-10T08:23:19;6.97;;;5.47;;
7747;SDS011;3918;42.564;23.164;2023-05-10T08:25:46;6.35;;;5.75;;
7747;SDS011;3918;42.564;23.164;2023-05-10T08:28:13;5.85;;;5.25;;
7747;SDS011;3918;42.564;23.164;2023-05-10T08:30:39;6.90;;;5.72;;
7747;SDS011;3918;42.564;23.164;2023-05-10T08:33:06;7.18;;;6.05;;
7747;SDS011;3918;42.564;23.164;2023-05-10T08:35:34;9.85;;;6.30;;
7747;SDS011;3918;42.564;23.164;2023-05-10T08:38:01;8.40;;;6.32;;
7747;SDS011;3918;42.564;23.164;2023-05-10T08:40:28;16.80;;;6.85;;
7747;SDS011;3918;42.564;23.164;2023-05-10T08:42:55;31.85;;;8.10;;
7747;SDS011;3918;42.564;23.164;2023-05-10T08:45:29;7.22;;;6.05;;
7747;SDS011;3918;42.564;23.164;2023-05-10T08:47:59;16.40;;;6.57;;
7747;SDS011;3918;42.564;23.164;2023-05-10T08:50:27;8.93;;;5.95;;
7747;SDS011;3918;42.564;23.164;2023-05-10T08:52:57;8.63;;;5.97;;
7747;SDS011;3918;42.564;23.164;2023-05-10T08:55:27;9.73;;;5.88;;
7747;SDS011;3918;42.564;23.164;2023-05-10T08:57:54;8.93;;;6.53;;
7747;SDS011;3918;42.564;23.164;2023-05-10T09:00:21;12.95;;;6.90;;
7747;SDS011;3918;42.564;23.164;2023-05-10T09:02:49;11.48;;;7.05;;
7747;SDS011;3918;42.564;23.164;2023-05-10T09:05:16;7.53;;;6.05;;
7747;SDS011;3918;42.564;23.164;2023-05-10T09:07:42;9.65;;;6.40;;
7747;SDS011;3918;42.564;23.164;2023-05-10T09:10:11;9.77;;;6.22;;
7747;SDS011;3918;42.564;23.164;2023-05-10T09:12:40;8.50;;;6.30;;
7747;SDS011;3918;42.564;23.164;2023-05-10T09:15:09;8.77;;;6.60;;
7747;SDS011;3918;42.564;23.164;2023-05-10T09:17:37;12.38;;;7.75;;
7747;SDS011;3918;42.564;23.164;2023-05-10T09:20:05;12.50;;;7.30;;
7747;SDS011;3918;42.564;23.164;2023-05-10T09:22:33;12.35;;;7.72;;
7747;SDS011;3918;42.564;23.164;2023-05-10T09:25:04;10.77;;;7.10;;
7747;SDS011;3918;42.564;23.164;2023-05-10T09:27:33;7.90;;;6.18;;
7747;SDS011;3918;42.564;23.164;2023-05-10T09:30:00;9.23;;;7.05;;
7747;SDS011;3918;42.564;23.164;2023-05-10T09:32:36;8.48;;;5.88;;
7747;SDS011;3918;42.564;23.164;2023-05-10T09:35:07;7.60;;;6.50;;
7747;SDS011;3918;42.564;23.164;2023-05-10T09:37:35;9.75;;;6.47;;
7747;SDS011;3918;42.564;23.164;2023-05-10T09:40:05;9.50;;;6.68;;
7747;SDS011;3918;42.564;23.164;2023-05-10T09:42:34;11.75;;;6.68;;
7747;SDS011;3918;42.564;23.164;2023-05-10T09:45:02;9.13;;;6.72;;
7747;SDS011;3918;42.564;23.164;2023-05-10T09:47:31;8.98;;;6.30;;
7747;SDS011;3918;42.564;23.164;2023-05-10T09:49:59;13.32;;;7.40;;
7747;SDS011;3918;42.564;23.164;2023-05-10T09:52:29;9.38;;;7.15;;
7747;SDS011;3918;42.564;23.164;2023-05-10T09:54:56;11.40;;;7.10;;
7747;SDS011;3918;42.564;23.164;2023-05-10T09:57:23;13.73;;;7.25;;
7747;SDS011;3918;42.564;23.164;2023-05-10T09:59:52;10.18;;;6.85;;
7747;SDS011;3918;42.564;23.164;2023-05-10T10:02:20;8.88;;;7.15;;
7747;SDS011;3918;42.564;23.164;2023-05-10T10:04:48;8.55;;;7.30;;
7747;SDS011;3918;42.564;23.164;2023-05-10T10:07:17;10.25;;;7.78;;
7747;SDS011;3918;42.564;23.164;2023-05-10T10:09:49;11.35;;;8.05;;
7747;SDS011;3918;42.564;23.164;2023-05-10T10:12:16;8.02;;;6.65;;
7747;SDS011;3918;42.564;23.164;2023-05-10T10:14:43;9.63;;;6.82;;
7747;SDS011;3918;42.564;23.164;2023-05-10T10:17:11;11.60;;;6.28;;
7747;SDS011;3918;42.564;23.164;2023-05-10T10:19:39;8.30;;;6.75;;
7747;SDS011;3918;42.564;23.164;2023-05-10T10:22:06;9.63;;;6.90;;
7747;SDS011;3918;42.564;23.164;2023-05-10T10:24:33;11.85;;;6.95;;
7747;SDS011;3918;42.564;23.164;2023-05-10T10:27:01;10.15;;;7.20;;
7747;SDS011;3918;42.564;23.164;2023-05-10T10:29:36;8.20;;;5.82;;
7747;SDS011;3918;42.564;23.164;2023-05-10T10:32:18;9.90;;;6.43;;
7747;SDS011;3918;42.564;23.164;2023-05-10T10:34:50;7.57;;;6.63;;
7747;SDS011;3918;42.564;23.164;2023-05-10T10:37:17;10.98;;;7.28;;
7747;SDS011;3918;42.564;23.164;2023-05-10T10:39:44;11.45;;;7.55;;
7747;SDS011;3918;42.564;23.164;2023-05-10T10:42:14;14.05;;;8.10;;
7747;SDS011;3918;42.564;23.164;2023-05-10T10:45:12;15.25;;;7.93;;
7747;SDS011;3918;42.564;23.164;2023-05-10T10:47:39;11.45;;;7.80;;
7747;SDS011;3918;42.564;23.164;2023-05-10T10:50:08;12.05;;;7.53;;
7747;SDS011;3918;42.564;23.164;2023-05-10T10:52:38;10.50;;;7.63;;
7747;SDS011;3918;42.564;23.164;2023-05-10T10:55:06;9.07;;;6.72;;
7747;SDS011;3918;42.564;23.164;2023-05-10T10:57:42;14.50;;;8.35;;
7747;SDS011;3918;42.564;23.164;2023-05-10T11:00:23;9.90;;;7.68;;
7747;SDS011;3918;42.564;23.164;2023-05-10T11:02:52;9.32;;;7.20;;
7747;SDS011;3918;42.564;23.164;2023-05-10T11:08:09;12.35;;;7.05;;
7747;SDS011;3918;42.564;23.164;2023-05-10T11:10:54;8.23;;;6.97;;
7747;SDS011;3918;42.564;23.164;2023-05-10T11:13:31;9.65;;;7.07;;
7747;SDS011;3918;42.564;23.164;2023-05-10T11:15:59;7.30;;;5.95;;
7747;SDS011;3918;42.564;23.164;2023-05-10T11:18:37;7.00;;;5.90;;
7747;SDS011;3918;42.564;23.164;2023-05-10T11:21:04;6.32;;;5.70;;
7747;SDS011;3918;42.564;23.164;2023-05-10T11:23:31;6.47;;;4.72;;
7747;SDS011;3918;42.564;23.164;2023-05-10T11:25:59;6.13;;;5.53;;
7747;SDS011;3918;42.564;23.164;2023-05-10T11:28:27;6.30;;;5.70;;
7747;SDS011;3918;42.564;23.164;2023-05-10T11:30:55;7.50;;;5.82;;
7747;SDS011;3918;42.564;23.164;2023-05-10T11:33:23;9.98;;;6.47;;
7747;SDS011;3918;42.564;23.164;2023-05-10T11:35:49;6.28;;;4.57;;
7747;SDS011;3918;42.564;23.164;2023-05-10T11:38:16;5.13;;;4.63;;
7747;SDS011;3918;42.564;23.164;2023-05-10T11:40:43;6.95;;;5.00;;
7747;SDS011;3918;42.564;23.164;2023-05-10T11:43:10;7.68;;;5.97;;
7747;SDS011;3918;42.564;23.164;2023-05-10T11:45:37;13.88;;;6.40;;
7747;SDS011;3918;42.564;23.164;2023-05-10T11:48:05;9.27;;;6.88;;
7747;SDS011;3918;42.564;23.164;2023-05-10T11:50:32;8.43;;;5.78;;
7747;SDS011;3918;42.564;23.164;2023-05-10T11:52:59;7.82;;;6.57;;
7747;SDS011;3918;42.564;23.164;2023-05-10T11:55:26;9.75;;;6.47;;
7747;SDS011;3918;42.564;23.164;2023-05-10T11:57:55;12.30;;;6.78;;
7747;SDS011;3918;42.564;23.164;2023-05-10T12:00:27;8.77;;;6.10;;
7747;SDS011;3918;42.564;23.164;2023-05-10T12:02:54;7.65;;;6.20;;
7747;SDS011;3918;42.564;23.164;2023-05-10T12:05:22;8.32;;;6.30;;
7747;SDS011;3918;42.564;23.164;2023-05-10T12:07:49;6.68;;;5.80;;
7747;SDS011;3918;42.564;23.164;2023-05-10T12:10:17;8.65;;;6.13;;
7747;SDS011;3918;42.564;23.164;2023-05-10T12:12:51;8.30;;;6.47;;
7747;SDS011;3918;42.564;23.164;2023-05-10T12:15:19;6.63;;;6.03;;
7747;SDS011;3918;42.564;23.164;2023-05-10T12:17:47;6.72;;;6.03;;
7747;SDS011;3918;42.564;23.164;2023-05-10T12:20:18;11.13;;;6.40;;
7747;SDS011;3918;42.564;23.164;2023-05-10T12:22:50;12.70;;;6.60;;
7747;SDS011;3918;42.564;23.164;2023-05-10T12:25:18;6.18;;;5.55;;
7747;SDS011;3918;42.564;23.164;2023-05-10T12:27:48;6.25;;;5.63;;
7747;SDS011;3918;42.564;23.164;2023-05-10T12:30:20;8.05;;;6.07;;
7747;SDS011;3918;42.564;23.164;2023-05-10T12:32:48;8.18;;;6.95;;
7747;SDS011;3918;42.564;23.164;2023-05-10T12:35:15;11.48;;;5.75;;
7747;SDS011;3918;42.564;23.164;2023-05-10T12:37:42;24.92;;;7.68;;
7747;SDS011;3918;42.564;23.164;2023-05-10T12:40:10;9.05;;;6.50;;
7747;SDS011;3918;42.564;23.164;2023-05-10T12:42:38;9.95;;;6.80;;
7747;SDS011;3918;42.564;23.164;2023-05-10T12:45:05;14.70;;;6.85;;
7747;SDS011;3918;42.564;23.164;2023-05-10T12:47:34;9.23;;;6.35;;
7747;SDS011;3918;42.564;23.164;2023-05-10T12:50:01;6.20;;;5.60;;
7747;SDS011;3918;42.564;23.164;2023-05-10T12:52:28;6.55;;;5.63;;
7747;SDS011;3918;42.564;23.164;2023-05-10T12:54:57;8.85;;;6.20;;
7747;SDS011;3918;42.564;23.164;2023-05-10T12:57:25;7.13;;;5.93;;
7747;SDS011;3918;42.564;23.164;2023-05-10T12:59:53;8.90;;;5.85;;
7747;SDS011;3918;42.564;23.164;2023-05-10T13:02:20;7.53;;;6.22;;
7747;SDS011;3918;42.564;23.164;2023-05-10T13:04:48;7.35;;;6.38;;
7747;SDS011;3918;42.564;23.164;2023-05-10T13:07:15;6.53;;;5.93;;
7747;SDS011;3918;42.564;23.164;2023-05-10T13:09:42;16.27;;;6.07;;
7747;SDS011;3918;42.564;23.164;2023-05-10T13:12:08;6.40;;;5.75;;
7747;SDS011;3918;42.564;23.164;2023-05-10T13:14:36;9.77;;;6.38;;
7747;SDS011;3918;42.564;23.164;2023-05-10T13:17:05;11.07;;;6.22;;
7747;SDS011;3918;42.564;23.164;2023-05-10T13:19:32;7.03;;;5.20;;
7747;SDS011;3918;42.564;23.164;2023-05-10T13:21:58;10.18;;;5.78;;
7747;SDS011;3918;42.564;23.164;2023-05-10T13:24:25;9.18;;;5.82;;
7747;SDS011;3918;42.564;23.164;2023-05-10T13:26:52;9.13;;;5.57;;
7747;SDS011;3918;42.564;23.164;2023-05-10T13:29:19;8.98;;;6.25;;
7747;SDS011;3918;42.564;23.164;2023-05-10T13:31:48;6.55;;;5.75;;
7747;SDS011;3918;42.564;23.164;2023-05-10T13:34:15;5.30;;;4.80;;
7747;SDS011;3918;42.564;23.164;2023-05-10T13:36:45;7.53;;;5.15;;
7747;SDS011;3918;42.564;23.164;2023-05-10T13:39:12;11.85;;;5.28;;
7747;SDS011;3918;42.564;23.164;2023-05-10T13:41:39;6.25;;;5.53;;
7747;SDS011;3918;42.564;23.164;2023-05-10T13:44:06;7.35;;;5.07;;
7747;SDS011;3918;42.564;23.164;2023-05-10T13:46:33;9.55;;;5.90;;
7747;SDS011;3918;42.564;23.164;2023-05-10T13:49:01;7.95;;;6.05;;
7747;SDS011;3918;42.564;23.164;2023-05-10T13:51:28;6.88;;;5.40;;
7747;SDS011;3918;42.564;23.164;2023-05-10T13:53:56;20.30;;;6.97;;
7747;SDS011;3918;42.564;23.164;2023-05-10T13:56:23;7.25;;;6.25;;
7747;SDS011;3918;42.564;23.164;2023-05-10T13:58:50;13.13;;;7.05;;
7747;SDS011;3918;42.564;23.164;2023-05-10T14:01:17;11.65;;;6.60;;
7747;SDS011;3918;42.564;23.164;2023-05-10T14:03:44;8.73;;;6.07;;
7747;SDS011;3918;42.564;23.164;2023-05-10T14:06:12;14.35;;;6.85;;
7747;SDS011;3918;42.564;23.164;2023-05-10T14:08:39;6.95;;;6.22;;
7747;SDS011;3918;42.564;23.164;2023-05-10T14:11:06;8.85;;;6.93;;
7747;SDS011;3918;42.564;23.164;2023-05-10T14:13:32;8.30;;;7.00;;
7747;SDS011;3918;42.564;23.164;2023-05-10T14:16:00;9.13;;;6.50;;
7747;SDS011;3918;42.564;23.164;2023-05-10T14:18:26;13.90;;;6.72;;
7747;SDS011;3918;42.564;23.164;2023-05-10T14:20:53;9.77;;;6.57;;
7747;SDS011;3918;42.564;23.164;2023-05-10T14:23:22;9.02;;;7.80;;
7747;SDS011;3918;42.564;23.164;2023-05-10T14:25:50;21.33;;;13.02;;
7747;SDS011;3918;42.564;23.164;2023-05-10T14:28:17;7.90;;;6.55;;
7747;SDS011;3918;42.564;23.164;2023-05-10T14:30:45;9.35;;;6.90;;
7747;SDS011;3918;42.564;23.164;2023-05-10T14:33:12;9.70;;;6.35;;
7747;SDS011;3918;42.564;23.164;2023-05-10T14:35:39;9.52;;;7.10;;
7747;SDS011;3918;42.564;23.164;2023-05-10T14:38:05;7.60;;;6.47;;
7747;SDS011;3918;42.564;23.164;2023-05-10T14:40:33;8.93;;;7.50;;
7747;SDS011;3918;42.564;23.164;2023-05-10T14:43:00;10.82;;;6.75;;
7747;SDS011;3918;42.564;23.164;2023-05-10T14:45:27;8.55;;;5.88;;
7747;SDS011;3918;42.564;23.164;2023-05-10T14:47:54;8.27;;;6.28;;
7747;SDS011;3918;42.564;23.164;2023-05-10T14:50:21;11.48;;;6.60;;
7747;SDS011;3918;42.564;23.164;2023-05-10T14:52:48;15.52;;;6.72;;
7747;SDS011;3918;42.564;23.164;2023-05-10T14:55:15;11.30;;;6.72;;
7747;SDS011;3918;42.564;23.164;2023-05-10T14:57:43;10.38;;;7.00;;
7747;SDS011;3918;42.564;23.164;2023-05-10T15:00:12;9.88;;;6.20;;
7747;SDS011;3918;42.564;23.164;2023-05-10T15:02:41;8.07;;;7.10;;
7747;SDS011;3918;42.564;23.164;2023-05-10T15:05:08;8.90;;;6.47;;
7747;SDS011;3918;42.564;23.164;2023-05-10T15:07:35;8.38;;;7.07;;
7747;SDS011;3918;42.564;23.164;2023-05-10T15:10:01;10.07;;;7.80;;
7747;SDS011;3918;42.564;23.164;2023-05-10T15:12:29;8.95;;;7.25;;
7747;SDS011;3918;42.564;23.164;2023-05-10T15:14:57;10.27;;;7.78;;
7747;SDS011;3918;42.564;23.164;2023-05-10T15:17:23;8.82;;;7.30;;
7747;SDS011;3918;42.564;23.164;2023-05-10T15:19:50;8.00;;;6.95;;
7747;SDS011;3918;42.564;23.164;2023-05-10T15:22:17;11.15;;;7.63;;
7747;SDS011;3918;42.564;23.164;2023-05-10T15:24:44;11.77;;;7.88;;
7747;SDS011;3918;42.564;23.164;2023-05-10T15:27:11;11.07;;;7.28;;
7747;SDS011;3918;42.564;23.164;2023-05-10T15:29:37;10.88;;;7.55;;
7747;SDS011;3918;42.564;23.164;2023-05-10T15:32:05;12.93;;;7.95;;
7747;SDS011;3918;42.564;23.164;2023-05-10T15:34:32;20.30;;;7.50;;
7747;SDS011;3918;42.564;23.164;2023-05-10T15:36:59;10.75;;;8.43;;
7747;SDS011;3918;42.564;23.164;2023-05-10T15:39:26;11.82;;;8.35;;
7747;SDS011;3918;42.564;23.164;2023-05-10T15:41:53;10.50;;;7.57;;
7747;SDS011;3918;42.564;23.164;2023-05-10T15:44:19;13.18;;;8.50;;
7747;SDS011;3918;42.564;23.164;2023-05-10T15:46:47;15.20;;;8.93;;
7747;SDS011;3918;42.564;23.164;2023-05-10T15:49:15;14.73;;;8.43;;
7747;SDS011;3918;42.564;23.164;2023-05-10T15:51:42;18.20;;;9.35;;
7747;SDS011;3918;42.564;23.164;2023-05-10T15:54:09;13.32;;;9.05;;
7747;SDS011;3918;42.564;23.164;2023-05-10T15:56:35;12.05;;;7.38;;
7747;SDS011;3918;42.564;23.164;2023-05-10T15:59:03;11.38;;;9.15;;
7747;SDS011;3918;42.564;23.164;2023-05-10T16:01:32;16.58;;;9.63;;
7747;SDS011;3918;42.564;23.164;2023-05-10T16:03:59;14.35;;;9.40;;
7747;SDS011;3918;42.564;23.164;2023-05-10T16:06:28;14.57;;;10.00;;
7747;SDS011;3918;42.564;23.164;2023-05-10T16:08:55;12.23;;;9.35;;
7747;SDS011;3918;42.564;23.164;2023-05-10T16:11:22;13.98;;;9.15;;
7747;SDS011;3918;42.564;23.164;2023-05-10T16:13:48;15.80;;;9.63;;
7747;SDS011;3918;42.564;23.164;2023-05-10T16:16:15;15.13;;;9.85;;
7747;SDS011;3918;42.564;23.164;2023-05-10T16:18:42;15.88;;;10.65;;
7747;SDS011;3918;42.564;23.164;2023-05-10T16:21:09;12.18;;;9.52;;
7747;SDS011;3918;42.564;23.164;2023-05-10T16:23:37;13.13;;;9.20;;
7747;SDS011;3918;42.564;23.164;2023-05-10T16:26:04;12.65;;;6.63;;
7747;SDS011;3918;42.564;23.164;2023-05-10T16:28:31;13.10;;;7.50;;
7747;SDS011;3918;42.564;23.164;2023-05-10T16:30:58;21.13;;;7.38;;
7747;SDS011;3918;42.564;23.164;2023-05-10T16:33:25;11.98;;;7.90;;
7747;SDS011;3918;42.564;23.164;2023-05-10T16:35:52;10.95;;;8.45;;
7747;SDS011;3918;42.564;23.164;2023-05-10T16:38:19;34.80;;;19.13;;
7747;SDS011;3918;42.564;23.164;2023-05-10T16:40:48;14.50;;;9.93;;
7747;SDS011;3918;42.564;23.164;2023-05-10T16:43:15;14.02;;;10.02;;
7747;SDS011;3918;42.564;23.164;2023-05-10T16:45:41;13.88;;;9.68;;
7747;SDS011;3918;42.564;23.164;2023-05-10T16:48:08;15.73;;;8.93;;
7747;SDS011;3918;42.564;23.164;2023-05-10T16:50:35;14.80;;;10.43;;
7747;SDS011;3918;42.564;23.164;2023-05-10T16:53:02;12.93;;;10.10;;
7747;SDS011;3918;42.564;23.164;2023-05-10T16:55:28;14.77;;;10.80;;
7747;SDS011;3918;42.564;23.164;2023-05-10T16:57:56;13.55;;;10.13;;
7747;SDS011;3918;42.564;23.164;2023-05-10T17:00:25;15.15;;;10.60;;
7747;SDS011;3918;42.564;23.164;2023-05-10T17:02:52;14.82;;;10.43;;
7747;SDS011;3918;42.564;23.164;2023-05-10T17:05:18;18.00;;;11.07;;
7747;SDS011;3918;42.564;23.164;2023-05-10T17:07:45;15.88;;;11.90;;
7747;SDS011;3918;42.564;23.164;2023-05-10T17:10:13;17.52;;;11.23;;
7747;SDS011;3918;42.564;23.164;2023-05-10T17:12:40;17.05;;;12.40;;
7747;SDS011;3918;42.564;23.164;2023-05-10T17:15:09;30.63;;;12.10;;
7747;SDS011;3918;42.564;23.164;2023-05-10T17:17:36;23.52;;;12.32;;
7747;SDS011;3918;42.564;23.164;2023-05-10T17:20:03;16.30;;;12.00;;
7747;SDS011;3918;42.564;23.164;2023-05-10T17:22:31;19.10;;;13.23;;
7747;SDS011;3918;42.564;23.164;2023-05-10T17:24:58;21.60;;;12.27;;
7747;SDS011;3918;42.564;23.164;2023-05-10T17:27:24;20.58;;;12.75;;
7747;SDS011;3918;42.564;23.164;2023-05-10T17:29:54;17.98;;;12.27;;
7747;SDS011;3918;42.564;23.164;2023-05-10T17:32:22;22.27;;;12.27;;
7747;SDS011;3918;42.564;23.164;2023-05-10T17:34:49;14.25;;;10.57;;
7747;SDS011;3918;42.564;23.164;2023-05-10T17:37:16;19.35;;;10.48;;
7747;SDS011;3918;42.564;23.164;2023-05-10T17:39:43;10.20;;;8.68;;
7747;SDS011;3918;42.564;23.164;2023-05-10T17:42:10;13.95;;;10.35;;
7747;SDS011;3918;42.564;23.164;2023-05-10T17:44:38;17.30;;;11.15;;
7747;SDS011;3918;42.564;23.164;2023-05-10T17:47:05;14.77;;;9.27;;
7747;SDS011;3918;42.564;23.164;2023-05-10T17:49:33;14.23;;;8.38;;
7747;SDS011;3918;42.564;23.164;2023-05-10T17:52:00;13.18;;;9.70;;
7747;SDS011;3918;42.564;23.164;2023-05-10T17:54:27;14.52;;;10.00;;
7747;SDS011;3918;42.564;23.164;2023-05-10T17:56:54;12.38;;;9.88;;
7747;SDS011;3918;42.564;23.164;2023-05-10T17:59:22;16.25;;;9.95;;
7747;SDS011;3918;42.564;23.164;2023-05-10T18:01:48;15.43;;;10.50;;
7747;SDS011;3918;42.564;23.164;2023-05-10T18:04:15;13.90;;;10.13;;
7747;SDS011;3918;42.564;23.164;2023-05-10T18:06:43;18.30;;;10.43;;
7747;SDS011;3918;42.564;23.164;2023-05-10T18:09:10;11.02;;;8.95;;
7747;SDS011;3918;42.564;23.164;2023-05-10T18:11:37;14.25;;;10.07;;
7747;SDS011;3918;42.564;23.164;2023-05-10T18:14:04;12.93;;;10.38;;
7747;SDS011;3918;42.564;23.164;2023-05-10T18:16:31;14.88;;;10.02;;
7747;SDS011;3918;42.564;23.164;2023-05-10T18:18:58;13.45;;;10.32;;
7747;SDS011;3918;42.564;23.164;2023-05-10T18:21:24;16.15;;;11.13;;
7747;SDS011;3918;42.564;23.164;2023-05-10T18:23:52;18.63;;;11.95;;
7747;SDS011;3918;42.564;23.164;2023-05-10T18:26:19;15.45;;;11.90;;
7747;SDS011;3918;42.564;23.164;2023-05-10T18:28:46;22.10;;;11.57;;
7747;SDS011;3918;42.564;23.164;2023-05-10T18:31:13;20.17;;;11.75;;
7747;SDS011;3918;42.564;23.164;2023-05-10T18:33:40;16.08;;;11.90;;
7747;SDS011;3918;42.564;23.164;2023-05-10T18:36:07;15.90;;;11.25;;
7747;SDS011;3918;42.564;23.164;2023-05-10T18:38:34;21.90;;;13.10;;
7747;SDS011;3918;42.564;23.164;2023-05-10T18:41:02;16.15;;;11.82;;
7747;SDS011;3918;42.564;23.164;2023-05-10T18:43:29;18.67;;;12.93;;
7747;SDS011;3918;42.564;23.164;2023-05-10T18:45:58;21.48;;;12.43;;
7747;SDS011;3918;42.564;23.164;2023-05-10T18:48:24;19.73;;;13.38;;
7747;SDS011;3918;42.564;23.164;2023-05-10T18:50:51;18.58;;;12.90;;
7747;SDS011;3918;42.564;23.164;2023-05-10T18:53:18;17.80;;;12.82;;
7747;SDS011;3918;42.564;23.164;2023-05-10T18:55:44;19.25;;;13.48;;
7747;SDS011;3918;42.564;23.164;2023-05-10T18:58:13;22.23;;;14.45;;
7747;SDS011;3918;42.564;23.164;2023-05-10T19:00:39;26.15;;;15.55;;
